createdAt,value
2019-02-23T00:01:16.792Z,99.90
2019-02-23T00:04:42.402Z,99.90
2019-02-23T00:08:08.118Z,99.90
2019-02-23T00:11:33.794Z,99.90
2019-02-23T00:14:59.479Z,99.90
2019-02-23T00:18:25.164Z,99.90
2019-02-23T00:21:50.764Z,99.90
2019-02-23T00:25:16.411Z,99.90
2019-02-23T00:28:42.053Z,99.90
2019-02-23T00:32:07.676Z,99.90
2019-02-23T00:35:33.753Z,99.90
2019-02-23T00:38:59.340Z,99.90
2019-02-23T00:42:25.287Z,99.90
2019-02-23T00:45:50.890Z,99.90
2019-02-23T00:49:17.147Z,99.90
2019-02-23T00:52:42.841Z,99.90
2019-02-23T00:56:08.493Z,99.90
2019-02-23T00:59:34.112Z,99.90
2019-02-23T01:02:59.706Z,99.90
2019-02-23T01:06:25.365Z,99.90
2019-02-23T01:09:51.319Z,99.90
2019-02-23T01:13:17.169Z,99.90
2019-02-23T01:16:43.100Z,99.90
2019-02-23T01:20:11.039Z,99.90
2019-02-23T01:23:36.685Z,99.90
2019-02-23T01:27:02.299Z,99.90
2019-02-23T01:30:27.930Z,99.90
2019-02-23T01:33:53.549Z,99.90
2019-02-23T01:37:19.206Z,99.90
2019-02-23T01:40:44.831Z,99.90
2019-02-23T01:44:10.451Z,99.90
2019-02-23T01:47:36.043Z,99.90
2019-02-23T01:51:01.644Z,99.90
2019-02-23T01:54:27.249Z,99.90
2019-02-23T01:57:52.901Z,99.90
2019-02-23T02:01:18.492Z,99.90
2019-02-23T02:04:44.150Z,99.90
2019-02-23T02:08:09.783Z,99.90
2019-02-23T02:11:35.520Z,99.90
2019-02-23T02:15:01.221Z,99.90
2019-02-23T02:18:27.044Z,99.90
2019-02-23T02:21:52.720Z,99.90
2019-02-23T02:25:18.716Z,99.90
2019-02-23T02:28:44.383Z,99.90
2019-02-23T02:32:10.025Z,99.90
2019-02-23T02:35:35.661Z,99.90
2019-02-23T02:39:01.281Z,99.90
2019-02-23T02:42:26.915Z,99.90
2019-02-23T02:45:52.605Z,99.90
2019-02-23T02:49:18.278Z,99.90
2019-02-23T02:52:43.946Z,99.90
2019-02-23T02:56:09.632Z,99.90
2019-02-23T02:59:35.267Z,99.90
2019-02-23T03:03:00.896Z,99.90
2019-02-23T03:06:26.927Z,99.90
2019-02-23T03:09:52.595Z,99.90
2019-02-23T03:13:18.189Z,99.90
2019-02-23T03:16:44.127Z,99.90
2019-02-23T03:20:10.554Z,99.90
2019-02-23T03:23:36.514Z,99.90
2019-02-23T03:27:02.129Z,99.90
2019-02-23T03:30:27.805Z,99.90
2019-02-23T03:33:53.411Z,99.90
2019-02-23T03:37:19.018Z,99.90
2019-02-23T03:40:44.658Z,99.90
2019-02-23T03:44:10.257Z,99.90
2019-02-23T03:47:35.889Z,99.90
2019-02-23T03:51:01.476Z,99.90
2019-02-23T03:54:27.103Z,99.90
2019-02-23T03:57:52.730Z,99.90
2019-02-23T04:01:18.381Z,99.90
2019-02-23T04:04:44.057Z,99.90
2019-02-23T04:08:09.811Z,99.90
2019-02-23T04:11:35.454Z,99.90
2019-02-23T04:15:01.689Z,99.90
2019-02-23T04:18:27.280Z,99.90
2019-02-23T04:21:52.934Z,99.90
2019-02-23T04:25:18.661Z,99.90
2019-02-23T04:28:44.293Z,99.90
2019-02-23T04:32:09.940Z,99.90
2019-02-23T04:35:35.900Z,99.90
2019-02-23T04:39:02.215Z,99.90
2019-02-23T04:42:27.873Z,99.90
2019-02-23T04:45:53.483Z,99.90
2019-02-23T04:49:19.161Z,99.90
2019-02-23T04:52:44.842Z,99.90
2019-02-23T04:56:10.453Z,99.90
2019-02-23T04:59:36.027Z,99.90
2019-02-23T05:03:01.672Z,99.90
2019-02-23T05:06:27.297Z,99.90
2019-02-23T05:09:52.898Z,99.90
2019-02-23T05:13:18.595Z,99.90
2019-02-23T05:16:44.218Z,99.90
2019-02-23T05:20:10.474Z,99.90
2019-02-23T05:23:36.077Z,99.90
2019-02-23T05:27:01.740Z,99.90
2019-02-23T05:30:31.560Z,99.90
2019-02-23T05:33:54.730Z,99.90
2019-02-23T05:37:20.347Z,99.90
2019-02-23T05:40:46.052Z,99.90
2019-02-23T05:44:11.700Z,99.90
2019-02-23T05:47:37.372Z,99.90
2019-02-23T05:51:03.041Z,99.90
2019-02-23T05:54:28.798Z,99.90
2019-02-23T05:57:54.438Z,99.90
2019-02-23T06:01:20.126Z,99.90
2019-02-23T06:04:48.130Z,99.90
2019-02-23T06:08:13.784Z,99.90
2019-02-23T06:11:39.342Z,99.90
2019-02-23T06:15:05.249Z,99.90
2019-02-23T06:18:31.117Z,99.90
2019-02-23T06:21:56.869Z,99.90
2019-02-23T06:25:22.934Z,99.90
2019-02-23T06:28:48.532Z,99.90
2019-02-23T06:32:14.228Z,99.90
2019-02-23T06:35:39.818Z,99.90
2019-02-23T06:39:06.444Z,99.90
2019-02-23T06:42:32.115Z,99.90
2019-02-23T06:45:57.825Z,99.90
2019-02-23T06:49:23.477Z,99.90
2019-02-23T06:52:49.163Z,99.90
2019-02-23T06:56:15.397Z,99.90
2019-02-23T06:59:41.165Z,99.90
2019-02-23T07:03:07.260Z,99.90
2019-02-23T07:06:34.018Z,99.90
2019-02-23T07:09:59.716Z,99.90
2019-02-23T07:13:25.367Z,99.90
2019-02-23T07:16:51.257Z,99.90
2019-02-23T07:20:43.728Z,99.90
2019-02-23T07:24:02.200Z,99.90
2019-02-23T07:27:27.842Z,99.90
2019-02-23T07:30:53.579Z,99.90
2019-02-23T07:34:28.015Z,99.90
2019-02-23T07:37:53.602Z,99.90
2019-02-23T07:41:19.400Z,99.90
2019-02-23T07:44:45.430Z,99.90
2019-02-23T07:48:12.452Z,99.90
2019-02-23T07:51:38.169Z,99.90
2019-02-23T07:55:03.686Z,99.90
2019-02-23T07:58:29.647Z,99.90
2019-02-23T08:01:55.286Z,99.90
2019-02-23T08:05:20.938Z,99.90
2019-02-23T08:08:46.675Z,99.90
2019-02-23T08:12:13.570Z,99.90
2019-02-23T08:15:39.555Z,99.90
2019-02-23T08:19:05.174Z,99.90
2019-02-23T08:22:37.427Z,99.90
2019-02-23T08:25:58.225Z,99.90
2019-02-23T08:29:23.859Z,99.90
2019-02-23T08:32:49.510Z,99.90
2019-02-23T08:36:15.331Z,99.90
2019-02-23T08:39:40.962Z,99.90
2019-02-23T08:43:06.663Z,99.90
2019-02-23T08:46:32.622Z,99.90
2019-02-23T08:49:58.338Z,99.90
2019-02-23T08:53:24.740Z,99.90
2019-02-23T08:56:50.397Z,99.90
2019-02-23T09:00:17.355Z,99.90
2019-02-23T09:03:43.129Z,99.90
2019-02-23T09:07:08.881Z,99.90
2019-02-23T09:10:34.558Z,99.90
2019-02-23T09:14:00.154Z,99.90
2019-02-23T09:17:25.856Z,99.90
2019-02-23T09:20:51.983Z,99.90
2019-02-23T09:24:17.933Z,99.90
2019-02-23T09:27:44.455Z,99.90
2019-02-23T09:31:10.144Z,99.90
2019-02-23T09:34:35.843Z,99.90
2019-02-23T09:38:03.265Z,99.90
2019-02-23T09:41:28.865Z,99.90
2019-02-23T09:44:54.607Z,99.90
2019-02-23T09:48:20.264Z,99.90
2019-02-23T09:51:45.998Z,99.90
2019-02-23T09:55:11.833Z,99.90
2019-02-23T09:58:37.445Z,99.90
2019-02-23T10:02:03.166Z,99.90
2019-02-23T10:05:29.080Z,99.90
2019-02-23T10:08:54.818Z,99.90
2019-02-23T10:12:20.557Z,98.80
2019-02-23T10:15:46.637Z,95.50
2019-02-23T10:19:12.551Z,94.10
2019-02-23T10:22:39.652Z,91.40
2019-02-23T10:26:06.010Z,91.20
2019-02-23T10:29:31.937Z,90.30
2019-02-23T10:32:57.745Z,89.10
2019-02-23T10:36:23.429Z,84.30
2019-02-23T10:39:49.020Z,77.40
2019-02-23T10:43:14.993Z,80.70
2019-02-23T10:50:06.449Z,75.20
2019-02-23T10:53:33.066Z,75.50
2019-02-23T10:56:59.384Z,74.40
2019-02-23T11:00:25.825Z,75.80
2019-02-23T11:03:51.444Z,75.80
2019-02-23T11:07:17.374Z,75.40
2019-02-23T11:10:43.331Z,74.90
2019-02-23T11:14:09.034Z,70.50
2019-02-23T11:17:35.205Z,71.40
2019-02-23T11:21:00.946Z,69.10
2019-02-23T11:24:26.602Z,68.60
2019-02-23T11:27:53.498Z,67.50
2019-02-23T11:31:19.147Z,65.40
2019-02-23T11:34:44.860Z,63.40
2019-02-23T11:38:10.508Z,62.40
2019-02-23T11:41:36.122Z,58.10
2019-02-23T11:45:01.766Z,54.70
2019-02-23T11:48:27.464Z,56.20
2019-02-23T11:51:53.159Z,55.60
2019-02-23T11:55:19.695Z,56.70
2019-02-23T11:58:45.622Z,56.60
2019-02-23T12:02:11.245Z,57.00
2019-02-23T12:05:36.906Z,55.90
2019-02-23T12:09:02.814Z,52.70
2019-02-23T12:12:28.383Z,52.30
2019-02-23T12:15:54.046Z,52.30
2019-02-23T12:19:19.709Z,51.10
2019-02-23T12:22:45.386Z,50.60
2019-02-23T12:26:11.094Z,49.50
2019-02-23T12:29:36.735Z,50.30
2019-02-23T12:33:02.537Z,48.90
2019-02-23T12:36:28.446Z,48.50
2019-02-23T12:39:54.103Z,47.90
2019-02-23T12:43:19.755Z,48.10
2019-02-23T12:46:45.692Z,47.90
2019-02-23T12:50:11.450Z,48.50
2019-02-23T12:53:37.143Z,49.80
2019-02-23T12:57:02.749Z,50.20
2019-02-23T13:00:28.783Z,48.40
2019-02-23T13:03:54.448Z,44.80
2019-02-23T13:07:20.089Z,46.90
2019-02-23T13:10:46.274Z,43.20
2019-02-23T13:15:02.803Z,44.20
2019-02-23T13:19:30.789Z,42.50
2019-02-23T13:23:47.667Z,42.60
2019-02-23T13:28:02.523Z,41.70
2019-02-23T13:32:43.776Z,41.40
2019-02-23T13:37:45.827Z,40.30
2019-02-23T13:42:01.014Z,39.80
2019-02-23T13:46:08.357Z,38.20
2019-02-23T13:50:43.254Z,39.00
2019-02-23T13:55:13.842Z,40.40
2019-02-23T13:59:18.809Z,39.00
2019-02-23T14:03:27.531Z,39.30
2019-02-23T14:07:33.710Z,38.30
2019-02-23T14:12:11.974Z,37.10
2019-02-23T14:16:29.672Z,36.50
2019-02-23T14:20:26.553Z,34.40
2019-02-23T14:24:52.592Z,33.80
2019-02-23T14:29:34.573Z,32.90
2019-02-23T14:33:57.581Z,34.00
2019-02-23T14:38:20.123Z,32.10
2019-02-23T14:42:18.919Z,30.10
2019-02-23T14:46:54.554Z,29.60
2019-02-23T14:50:59.451Z,29.70
2019-02-23T14:55:04.347Z,28.50
2019-02-23T14:59:24.472Z,28.60
2019-02-23T15:04:00.466Z,28.40
2019-02-23T15:08:14.498Z,28.60
2019-02-23T15:16:17.496Z,27.40
2019-02-23T15:20:16.630Z,27.90
2019-02-23T15:24:36.239Z,27.70
2019-02-23T15:28:47.911Z,28.00
2019-02-23T15:33:14.957Z,28.60
2019-02-23T15:37:57.506Z,29.70
2019-02-23T15:42:18.916Z,29.60
2019-02-23T15:46:15.126Z,29.30
2019-02-23T15:49:40.793Z,29.10
2019-02-23T15:53:06.689Z,29.40
2019-02-23T15:56:32.458Z,29.50
2019-02-23T15:59:58.254Z,30.90
2019-02-23T16:03:23.855Z,30.70
2019-02-23T16:06:49.565Z,32.00
2019-02-23T16:10:17.769Z,32.70
2019-02-23T16:13:42.906Z,32.10
2019-02-23T16:17:08.556Z,32.00
2019-02-23T16:20:34.187Z,32.60
2019-02-23T16:24:01.822Z,33.80
2019-02-23T16:27:27.747Z,36.20
2019-02-23T16:30:53.437Z,38.00
2019-02-23T16:34:19.058Z,37.90
2019-02-23T16:37:44.757Z,38.40
2019-02-23T16:41:10.382Z,39.30
2019-02-23T16:44:36.038Z,40.10
2019-02-23T16:48:01.787Z,40.50
2019-02-23T16:51:27.432Z,41.40
2019-02-23T16:54:53.010Z,41.50
2019-02-23T16:58:18.737Z,42.10
2019-02-23T17:01:44.368Z,42.60
2019-02-23T17:05:10.412Z,43.40
2019-02-23T17:08:36.073Z,44.50
2019-02-23T17:12:02.013Z,44.10
2019-02-23T17:15:27.650Z,44.00
2019-02-23T17:18:53.339Z,43.90
2019-02-23T17:22:19.011Z,43.90
2019-02-23T17:25:44.627Z,43.80
2019-02-23T17:29:10.422Z,43.70
2019-02-23T17:32:36.108Z,44.10
2019-02-23T17:36:01.729Z,44.10
2019-02-23T17:39:27.426Z,44.00
2019-02-23T17:42:53.103Z,43.50
2019-02-23T17:46:19.110Z,43.80
2019-02-23T17:49:45.695Z,43.00
2019-02-23T17:53:11.492Z,43.40
2019-02-23T17:56:37.110Z,43.50
2019-02-23T18:00:02.817Z,44.60
2019-02-23T18:03:28.466Z,44.80
2019-02-23T18:06:54.055Z,44.30
2019-02-23T18:10:20.053Z,44.80
2019-02-23T18:13:45.682Z,45.00
2019-02-23T18:17:11.753Z,45.30
2019-02-23T18:20:37.417Z,45.60
2019-02-23T18:24:03.438Z,45.70
2019-02-23T18:27:29.115Z,46.20
2019-02-23T18:30:55.399Z,46.30
2019-02-23T18:34:21.405Z,47.00
2019-02-23T18:37:47.303Z,46.60
2019-02-23T18:41:12.983Z,47.00
2019-02-23T18:44:38.630Z,47.00
2019-02-23T18:48:04.238Z,47.80
2019-02-23T18:51:29.851Z,47.80
2019-02-23T18:54:55.725Z,49.20
2019-02-23T18:58:21.408Z,50.10
2019-02-23T19:01:47.047Z,49.10
2019-02-23T19:05:13.621Z,49.70
2019-02-23T19:08:39.261Z,50.00
2019-02-23T19:12:05.113Z,50.10
2019-02-23T19:15:30.831Z,49.90
2019-02-23T19:18:56.472Z,50.00
2019-02-23T19:22:22.101Z,50.60
2019-02-23T19:25:47.650Z,51.70
2019-02-23T19:29:16.420Z,51.70
2019-02-23T19:32:42.072Z,51.10
2019-02-23T19:36:07.756Z,50.90
2019-02-23T19:39:33.423Z,51.40
2019-02-23T19:42:59.015Z,51.50
2019-02-23T19:46:25.162Z,51.20
2019-02-23T19:49:53.814Z,51.70
2019-02-23T19:53:19.686Z,52.40
2019-02-23T19:56:47.046Z,52.80
2019-02-23T20:00:12.923Z,53.40
2019-02-23T20:03:38.542Z,54.20
2019-02-23T20:07:04.217Z,55.20
2019-02-23T20:10:29.837Z,55.00
2019-02-23T20:13:55.421Z,54.70
2019-02-23T20:17:21.028Z,55.00
2019-02-23T20:20:46.683Z,54.00
2019-02-23T20:24:12.360Z,54.00
2019-02-23T20:27:38.076Z,53.60
2019-02-23T20:31:03.678Z,53.40
2019-02-23T20:34:29.282Z,53.60
2019-02-23T20:37:55.234Z,53.40
2019-02-23T20:41:21.529Z,53.60
2019-02-23T20:44:47.191Z,53.30
2019-02-23T20:48:12.846Z,53.60
2019-02-23T20:51:38.563Z,53.90
2019-02-23T20:55:04.795Z,53.80
2019-02-23T20:58:30.489Z,53.50
2019-02-23T21:02:00.090Z,53.20
2019-02-23T21:05:26.078Z,53.30
2019-02-23T21:08:51.891Z,53.40
2019-02-23T21:12:17.692Z,53.40
2019-02-23T21:15:43.546Z,53.50
2019-02-23T21:19:09.458Z,53.90
2019-02-23T21:22:35.375Z,54.50
2019-02-23T21:26:01.384Z,53.70
2019-02-23T21:29:27.352Z,53.80
2019-02-23T21:32:52.974Z,54.40
2019-02-23T21:36:20.416Z,54.90
2019-02-23T21:39:46.163Z,55.30
2019-02-23T21:43:13.519Z,55.40
2019-02-23T21:46:39.775Z,55.60
2019-02-23T21:50:05.638Z,55.40
2019-02-23T21:53:32.193Z,55.80
2019-02-23T21:56:59.607Z,56.10
2019-02-23T22:00:25.270Z,56.40
2019-02-23T22:03:51.231Z,55.90
2019-02-23T22:07:16.919Z,56.80
2019-02-23T22:10:45.615Z,57.10
2019-02-23T22:14:11.832Z,56.80
2019-02-23T22:17:37.681Z,56.50
2019-02-23T22:21:03.814Z,56.80
2019-02-23T22:24:29.935Z,56.80
2019-02-23T22:27:57.125Z,57.50
2019-02-23T22:31:22.969Z,58.20
2019-02-23T22:34:48.679Z,58.20
2019-02-23T22:38:14.258Z,58.60
2019-02-23T22:41:39.978Z,58.80
2019-02-23T22:45:08.145Z,59.30
2019-02-23T22:48:33.957Z,59.30
2019-02-23T22:51:59.540Z,59.70
2019-02-23T22:55:25.352Z,60.10
2019-02-23T22:58:51.177Z,60.50
2019-02-23T23:02:17.192Z,60.30
2019-02-23T23:05:43.125Z,61.00
2019-02-23T23:09:14.963Z,60.20
2019-02-23T23:12:42.506Z,60.00
2019-02-23T23:16:08.398Z,60.50
2019-02-23T23:19:34.264Z,60.50
2019-02-23T23:23:00.073Z,61.20
2019-02-23T23:26:25.725Z,61.30
2019-02-23T23:29:51.628Z,62.70
2019-02-23T23:33:18.132Z,62.30
2019-02-23T23:36:44.096Z,62.30
2019-02-23T23:40:09.854Z,63.10
2019-02-23T23:43:35.776Z,64.80
2019-02-23T23:47:01.485Z,67.30
2019-02-23T23:50:27.490Z,71.70
2019-02-23T23:53:53.141Z,72.80
2019-02-23T23:57:18.754Z,75.10
